sensor_id;sensor_type;location;lat;lon;timestamp;P1;durP1;ratioP1;P2;durP2;ratioP2
81150;SDS011;70629;-26.026;27.976;2024-02-04T00:00:08;15.07;;;11.50;;
81150;SDS011;70629;-26.026;27.976;2024-02-04T00:00:50;14.93;;;12.05;;
81150;SDS011;70629;-26.026;27.976;2024-02-04T00:01:30;13.77;;;11.63;;
81150;SDS011;70629;-26.026;27.976;2024-02-04T00:02:11;14.10;;;12.57;;
81150;SDS011;70629;-26.026;27.976;2024-02-04T00:02:52;14.38;;;12.77;;
81150;SDS011;70629;-26.026;27.976;2024-02-04T00:03:33;14.15;;;12.32;;
81150;SDS011;70629;-26.026;27.976;2024-02-04T00:04:12;14.77;;;12.43;;
81150;SDS011;70629;-26.026;27.976;2024-02-04T00:04:52;13.23;;;11.27;;
81150;SDS011;70629;-26.026;27.976;2024-02-04T00:05:32;13.52;;;11.15;;
81150;SDS011;70629;-26.026;27.976;2024-02-04T00:06:13;13.73;;;11.77;;
81150;SDS011;70629;-26.026;27.976;2024-02-04T00:06:53;12.85;;;11.40;;
81150;SDS011;70629;-26.026;27.976;2024-02-04T00:07:33;12.25;;;11.05;;
81150;SDS011;70629;-26.026;27.976;2024-02-04T00:08:12;11.77;;;10.57;;
81150;SDS011;70629;-26.026;27.976;2024-02-04T00:08:56;12.13;;;10.82;;
81150;SDS011;70629;-26.026;27.976;2024-02-04T00:09:36;11.25;;;9.95;;
81150;SDS011;70629;-26.026;27.976;2024-02-04T00:10:15;12.95;;;11.63;;
81150;SDS011;70629;-26.026;27.976;2024-02-04T00:10:57;15.88;;;12.10;;
81150;SDS011;70629;-26.026;27.976;2024-02-04T00:11:37;12.07;;;10.73;;
81150;SDS011;70629;-26.026;27.976;2024-02-04T00:12:17;12.43;;;10.60;;
81150;SDS011;70629;-26.026;27.976;2024-02-04T00:12:57;12.27;;;10.43;;
81150;SDS011;70629;-26.026;27.976;2024-02-04T00:13:37;14.07;;;10.40;;
81150;SDS011;70629;-26.026;27.976;2024-02-04T00:14:18;14.82;;;11.00;;
81150;SDS011;70629;-26.026;27.976;2024-02-04T00:14:57;13.20;;;11.38;;
81150;SDS011;70629;-26.026;27.976;2024-02-04T00:15:37;13.07;;;10.50;;
81150;SDS011;70629;-26.026;27.976;2024-02-04T00:16:17;12.65;;;11.13;;
81150;SDS011;70629;-26.026;27.976;2024-02-04T00:16:57;13.68;;;11.23;;
81150;SDS011;70629;-26.026;27.976;2024-02-04T00:17:37;16.20;;;11.80;;
81150;SDS011;70629;-26.026;27.976;2024-02-04T00:18:18;14.15;;;11.13;;
81150;SDS011;70629;-26.026;27.976;2024-02-04T00:18:58;14.60;;;11.45;;
81150;SDS011;70629;-26.026;27.976;2024-02-04T00:19:38;11.77;;;10.05;;
81150;SDS011;70629;-26.026;27.976;2024-02-04T00:20:17;14.90;;;11.70;;
81150;SDS011;70629;-26.026;27.976;2024-02-04T00:20:57;12.15;;;10.13;;
81150;SDS011;70629;-26.026;27.976;2024-02-04T00:21:37;13.80;;;12.38;;
81150;SDS011;70629;-26.026;27.976;2024-02-04T00:22:17;12.35;;;10.52;;
81150;SDS011;70629;-26.026;27.976;2024-02-04T00:22:58;14.43;;;11.35;;
81150;SDS011;70629;-26.026;27.976;2024-02-04T00:23:38;11.95;;;10.73;;
81150;SDS011;70629;-26.026;27.976;2024-02-04T00:24:18;11.60;;;10.13;;
81150;SDS011;70629;-26.026;27.976;2024-02-04T00:24:59;14.05;;;10.98;;
81150;SDS011;70629;-26.026;27.976;2024-02-04T00:25:50;14.88;;;11.38;;
81150;SDS011;70629;-26.026;27.976;2024-02-04T00:26:30;12.13;;;10.75;;
81150;SDS011;70629;-26.026;27.976;2024-02-04T00:27:10;13.20;;;9.90;;
81150;SDS011;70629;-26.026;27.976;2024-02-04T00:27:50;15.48;;;11.52;;
81150;SDS011;70629;-26.026;27.976;2024-02-04T00:28:30;13.93;;;11.30;;
81150;SDS011;70629;-26.026;27.976;2024-02-04T00:29:09;13.27;;;10.57;;
81150;SDS011;70629;-26.026;27.976;2024-02-04T00:29:49;14.02;;;11.43;;
81150;SDS011;70629;-26.026;27.976;2024-02-04T00:30:29;13.00;;;11.18;;
81150;SDS011;70629;-26.026;27.976;2024-02-04T00:31:09;12.68;;;11.38;;
81150;SDS011;70629;-26.026;27.976;2024-02-04T00:31:49;12.73;;;9.88;;
81150;SDS011;70629;-26.026;27.976;2024-02-04T00:32:30;12.40;;;10.50;;
81150;SDS011;70629;-26.026;27.976;2024-02-04T00:33:10;12.57;;;9.88;;
81150;SDS011;70629;-26.026;27.976;2024-02-04T00:33:50;12.02;;;10.73;;
81150;SDS011;70629;-26.026;27.976;2024-02-04T00:34:30;12.63;;;10.35;;
81150;SDS011;70629;-26.026;27.976;2024-02-04T00:35:10;13.35;;;11.45;;
81150;SDS011;70629;-26.026;27.976;2024-02-04T00:35:50;14.23;;;11.43;;
81150;SDS011;70629;-26.026;27.976;2024-02-04T00:36:30;15.27;;;11.35;;
81150;SDS011;70629;-26.026;27.976;2024-02-04T00:37:10;13.20;;;11.13;;
81150;SDS011;70629;-26.026;27.976;2024-02-04T00:37:50;13.45;;;11.23;;
81150;SDS011;70629;-26.026;27.976;2024-02-04T00:38:30;13.70;;;11.35;;
81150;SDS011;70629;-26.026;27.976;2024-02-04T00:39:10;12.50;;;11.20;;
81150;SDS011;70629;-26.026;27.976;2024-02-04T00:39:50;18.23;;;11.48;;
81150;SDS011;70629;-26.026;27.976;2024-02-04T00:40:30;12.65;;;11.35;;
81150;SDS011;70629;-26.026;27.976;2024-02-04T00:41:15;12.70;;;11.40;;
81150;SDS011;70629;-26.026;27.976;2024-02-04T00:41:55;15.60;;;11.00;;
81150;SDS011;70629;-26.026;27.976;2024-02-04T00:42:35;13.18;;;11.75;;
81150;SDS011;70629;-26.026;27.976;2024-02-04T00:43:15;12.40;;;11.10;;
81150;SDS011;70629;-26.026;27.976;2024-02-04T00:43:55;14.27;;;12.82;;
81150;SDS011;70629;-26.026;27.976;2024-02-04T00:44:35;15.55;;;12.88;;
81150;SDS011;70629;-26.026;27.976;2024-02-04T00:45:15;13.50;;;12.10;;
81150;SDS011;70629;-26.026;27.976;2024-02-04T00:45:55;15.05;;;13.35;;
81150;SDS011;70629;-26.026;27.976;2024-02-04T00:46:35;12.75;;;11.20;;
81150;SDS011;70629;-26.026;27.976;2024-02-04T00:47:15;14.13;;;11.05;;
81150;SDS011;70629;-26.026;27.976;2024-02-04T00:47:55;13.02;;;11.15;;
81150;SDS011;70629;-26.026;27.976;2024-02-04T00:48:35;12.27;;;11.02;;
81150;SDS011;70629;-26.026;27.976;2024-02-04T00:49:16;15.15;;;11.45;;
81150;SDS011;70629;-26.026;27.976;2024-02-04T00:49:57;15.98;;;12.55;;
81150;SDS011;70629;-26.026;27.976;2024-02-04T00:50:37;15.90;;;12.40;;
81150;SDS011;70629;-26.026;27.976;2024-02-04T00:51:17;15.50;;;12.25;;
81150;SDS011;70629;-26.026;27.976;2024-02-04T00:51:59;14.02;;;12.63;;
81150;SDS011;70629;-26.026;27.976;2024-02-04T00:52:38;16.48;;;12.65;;
81150;SDS011;70629;-26.026;27.976;2024-02-04T00:53:18;14.10;;;11.88;;
81150;SDS011;70629;-26.026;27.976;2024-02-04T00:53:58;14.50;;;13.00;;
81150;SDS011;70629;-26.026;27.976;2024-02-04T00:54:39;15.18;;;11.65;;
81150;SDS011;70629;-26.026;27.976;2024-02-04T00:55:19;12.10;;;10.90;;
81150;SDS011;70629;-26.026;27.976;2024-02-04T00:56:00;13.57;;;11.55;;
81150;SDS011;70629;-26.026;27.976;2024-02-04T00:56:43;14.70;;;11.00;;
81150;SDS011;70629;-26.026;27.976;2024-02-04T00:57:24;13.63;;;12.15;;
81150;SDS011;70629;-26.026;27.976;2024-02-04T00:58:03;13.38;;;11.77;;
81150;SDS011;70629;-26.026;27.976;2024-02-04T00:58:43;12.60;;;10.98;;
81150;SDS011;70629;-26.026;27.976;2024-02-04T00:59:23;13.82;;;11.38;;
81150;SDS011;70629;-26.026;27.976;2024-02-04T01:00:04;11.23;;;10.02;;
81150;SDS011;70629;-26.026;27.976;2024-02-04T01:00:46;13.52;;;10.55;;
81150;SDS011;70629;-26.026;27.976;2024-02-04T01:01:26;14.02;;;10.90;;
81150;SDS011;70629;-26.026;27.976;2024-02-04T01:02:06;12.48;;;10.30;;
81150;SDS011;70629;-26.026;27.976;2024-02-04T01:02:47;12.68;;;10.55;;
81150;SDS011;70629;-26.026;27.976;2024-02-04T01:03:27;13.73;;;10.93;;
81150;SDS011;70629;-26.026;27.976;2024-02-04T01:04:08;13.32;;;10.18;;
81150;SDS011;70629;-26.026;27.976;2024-02-04T01:04:48;13.23;;;11.05;;
81150;SDS011;70629;-26.026;27.976;2024-02-04T01:05:30;14.25;;;10.57;;
81150;SDS011;70629;-26.026;27.976;2024-02-04T01:06:10;13.90;;;11.70;;
81150;SDS011;70629;-26.026;27.976;2024-02-04T01:06:51;12.48;;;10.95;;
81150;SDS011;70629;-26.026;27.976;2024-02-04T01:07:38;12.50;;;10.35;;
81150;SDS011;70629;-26.026;27.976;2024-02-04T01:08:18;14.55;;;11.98;;
81150;SDS011;70629;-26.026;27.976;2024-02-04T01:08:58;11.98;;;10.55;;
81150;SDS011;70629;-26.026;27.976;2024-02-04T01:09:38;12.55;;;11.25;;
81150;SDS011;70629;-26.026;27.976;2024-02-04T01:10:18;14.45;;;10.95;;
81150;SDS011;70629;-26.026;27.976;2024-02-04T01:10:59;13.57;;;12.15;;
81150;SDS011;70629;-26.026;27.976;2024-02-04T01:11:39;14.48;;;11.60;;
81150;SDS011;70629;-26.026;27.976;2024-02-04T01:12:19;13.05;;;11.02;;
81150;SDS011;70629;-26.026;27.976;2024-02-04T01:12:59;13.52;;;12.02;;
81150;SDS011;70629;-26.026;27.976;2024-02-04T01:13:39;12.77;;;11.45;;
81150;SDS011;70629;-26.026;27.976;2024-02-04T01:14:19;13.50;;;11.95;;
81150;SDS011;70629;-26.026;27.976;2024-02-04T01:14:59;15.25;;;11.40;;
81150;SDS011;70629;-26.026;27.976;2024-02-04T01:15:40;15.13;;;13.55;;
81150;SDS011;70629;-26.026;27.976;2024-02-04T01:16:20;13.88;;;11.50;;
81150;SDS011;70629;-26.026;27.976;2024-02-04T01:16:59;12.50;;;11.15;;
81150;SDS011;70629;-26.026;27.976;2024-02-04T01:17:39;13.70;;;12.32;;
81150;SDS011;70629;-26.026;27.976;2024-02-04T01:18:19;12.20;;;10.55;;
81150;SDS011;70629;-26.026;27.976;2024-02-04T01:18:59;13.93;;;11.40;;
81150;SDS011;70629;-26.026;27.976;2024-02-04T01:19:39;12.55;;;11.30;;
81150;SDS011;70629;-26.026;27.976;2024-02-04T01:20:19;13.27;;;10.88;;
81150;SDS011;70629;-26.026;27.976;2024-02-04T01:20:59;13.45;;;10.50;;
81150;SDS011;70629;-26.026;27.976;2024-02-04T01:21:39;12.63;;;11.27;;
81150;SDS011;70629;-26.026;27.976;2024-02-04T01:22:19;12.27;;;10.98;;
81150;SDS011;70629;-26.026;27.976;2024-02-04T01:23:04;13.48;;;11.32;;
81150;SDS011;70629;-26.026;27.976;2024-02-04T01:23:43;12.50;;;11.18;;
81150;SDS011;70629;-26.026;27.976;2024-02-04T01:24:24;12.55;;;11.25;;
81150;SDS011;70629;-26.026;27.976;2024-02-04T01:25:05;13.95;;;10.18;;
81150;SDS011;70629;-26.026;27.976;2024-02-04T01:25:45;13.88;;;11.30;;
81150;SDS011;70629;-26.026;27.976;2024-02-04T01:26:25;14.65;;;11.60;;
81150;SDS011;70629;-26.026;27.976;2024-02-04T01:27:05;14.65;;;11.00;;
81150;SDS011;70629;-26.026;27.976;2024-02-04T01:27:46;12.60;;;10.82;;
81150;SDS011;70629;-26.026;27.976;2024-02-04T01:28:26;13.52;;;11.80;;
81150;SDS011;70629;-26.026;27.976;2024-02-04T01:29:06;13.18;;;10.40;;
81150;SDS011;70629;-26.026;27.976;2024-02-04T01:29:45;12.23;;;10.73;;
81150;SDS011;70629;-26.026;27.976;2024-02-04T01:30:26;16.70;;;11.18;;
81150;SDS011;70629;-26.026;27.976;2024-02-04T01:31:07;13.93;;;11.02;;
81150;SDS011;70629;-26.026;27.976;2024-02-04T01:31:47;14.82;;;11.68;;
81150;SDS011;70629;-26.026;27.976;2024-02-04T01:32:28;13.65;;;11.32;;
81150;SDS011;70629;-26.026;27.976;2024-02-04T01:33:08;13.68;;;12.27;;
81150;SDS011;70629;-26.026;27.976;2024-02-04T01:33:47;14.82;;;11.70;;
81150;SDS011;70629;-26.026;27.976;2024-02-04T01:34:27;13.23;;;11.93;;
81150;SDS011;70629;-26.026;27.976;2024-02-04T01:35:08;12.07;;;10.82;;
81150;SDS011;70629;-26.026;27.976;2024-02-04T01:35:48;13.48;;;11.70;;
81150;SDS011;70629;-26.026;27.976;2024-02-04T01:36:28;14.18;;;11.68;;
81150;SDS011;70629;-26.026;27.976;2024-02-04T01:37:09;13.80;;;12.02;;
81150;SDS011;70629;-26.026;27.976;2024-02-04T01:37:49;12.98;;;10.40;;
81150;SDS011;70629;-26.026;27.976;2024-02-04T01:38:30;14.55;;;11.10;;
81150;SDS011;70629;-26.026;27.976;2024-02-04T01:39:10;12.18;;;10.20;;
81150;SDS011;70629;-26.026;27.976;2024-02-04T01:39:49;13.02;;;10.23;;
81150;SDS011;70629;-26.026;27.976;2024-02-04T01:40:30;17.13;;;11.23;;
81150;SDS011;70629;-26.026;27.976;2024-02-04T01:41:10;16.05;;;11.85;;
81150;SDS011;70629;-26.026;27.976;2024-02-04T01:41:50;13.18;;;11.10;;
81150;SDS011;70629;-26.026;27.976;2024-02-04T01:42:30;13.05;;;11.38;;
81150;SDS011;70629;-26.026;27.976;2024-02-04T01:43:10;12.52;;;11.25;;
81150;SDS011;70629;-26.026;27.976;2024-02-04T01:43:50;13.90;;;12.60;;
81150;SDS011;70629;-26.026;27.976;2024-02-04T01:44:30;13.80;;;11.05;;
81150;SDS011;70629;-26.026;27.976;2024-02-04T01:45:10;13.63;;;12.02;;
81150;SDS011;70629;-26.026;27.976;2024-02-04T01:45:50;13.32;;;11.07;;
81150;SDS011;70629;-26.026;27.976;2024-02-04T01:46:31;18.08;;;10.93;;
81150;SDS011;70629;-26.026;27.976;2024-02-04T01:47:11;12.10;;;10.85;;
81150;SDS011;70629;-26.026;27.976;2024-02-04T01:47:51;13.05;;;11.27;;
81150;SDS011;70629;-26.026;27.976;2024-02-04T01:48:33;13.60;;;10.98;;
81150;SDS011;70629;-26.026;27.976;2024-02-04T01:49:13;13.57;;;11.60;;
81150;SDS011;70629;-26.026;27.976;2024-02-04T01:49:53;14.73;;;12.15;;
81150;SDS011;70629;-26.026;27.976;2024-02-04T01:50:33;13.13;;;11.68;;
81150;SDS011;70629;-26.026;27.976;2024-02-04T01:51:14;14.27;;;11.35;;
81150;SDS011;70629;-26.026;27.976;2024-02-04T01:51:55;13.10;;;11.75;;
81150;SDS011;70629;-26.026;27.976;2024-02-04T01:52:38;14.45;;;11.13;;
81150;SDS011;70629;-26.026;27.976;2024-02-04T01:53:21;16.30;;;11.70;;
81150;SDS011;70629;-26.026;27.976;2024-02-04T01:54:03;13.75;;;12.38;;
81150;SDS011;70629;-26.026;27.976;2024-02-04T01:54:45;12.35;;;11.05;;
81150;SDS011;70629;-26.026;27.976;2024-02-04T01:55:26;13.65;;;10.77;;
81150;SDS011;70629;-26.026;27.976;2024-02-04T01:56:06;12.43;;;10.27;;
81150;SDS011;70629;-26.026;27.976;2024-02-04T01:56:47;12.70;;;11.43;;
81150;SDS011;70629;-26.026;27.976;2024-02-04T01:57:29;14.45;;;10.75;;
81150;SDS011;70629;-26.026;27.976;2024-02-04T01:58:09;12.57;;;10.98;;
81150;SDS011;70629;-26.026;27.976;2024-02-04T01:58:49;13.40;;;11.95;;
81150;SDS011;70629;-26.026;27.976;2024-02-04T01:59:29;13.68;;;10.43;;
81150;SDS011;70629;-26.026;27.976;2024-02-04T02:00:10;14.00;;;11.63;;
81150;SDS011;70629;-26.026;27.976;2024-02-04T02:00:51;12.13;;;10.93;;
81150;SDS011;70629;-26.026;27.976;2024-02-04T02:01:32;13.18;;;11.68;;
81150;SDS011;70629;-26.026;27.976;2024-02-04T02:02:14;13.68;;;11.60;;
81150;SDS011;70629;-26.026;27.976;2024-02-04T02:02:54;14.80;;;12.00;;
81150;SDS011;70629;-26.026;27.976;2024-02-04T02:03:35;12.88;;;11.52;;
81150;SDS011;70629;-26.026;27.976;2024-02-04T02:04:17;13.65;;;12.18;;
81150;SDS011;70629;-26.026;27.976;2024-02-04T02:04:58;14.13;;;12.57;;
81150;SDS011;70629;-26.026;27.976;2024-02-04T02:05:40;15.00;;;12.57;;
81150;SDS011;70629;-26.026;27.976;2024-02-04T02:06:20;15.18;;;12.15;;
81150;SDS011;70629;-26.026;27.976;2024-02-04T02:07:01;14.52;;;12.43;;
81150;SDS011;70629;-26.026;27.976;2024-02-04T02:07:42;13.80;;;12.20;;
81150;SDS011;70629;-26.026;27.976;2024-02-04T02:08:24;14.35;;;12.85;;
81150;SDS011;70629;-26.026;27.976;2024-02-04T02:09:04;14.65;;;12.50;;
81150;SDS011;70629;-26.026;27.976;2024-02-04T02:09:45;15.65;;;13.18;;
81150;SDS011;70629;-26.026;27.976;2024-02-04T02:10:25;14.80;;;13.25;;
81150;SDS011;70629;-26.026;27.976;2024-02-04T02:11:07;15.20;;;12.60;;
81150;SDS011;70629;-26.026;27.976;2024-02-04T02:12:12;15.40;;;13.80;;
81150;SDS011;70629;-26.026;27.976;2024-02-04T02:12:58;17.35;;;13.98;;
81150;SDS011;70629;-26.026;27.976;2024-02-04T02:13:43;17.52;;;15.15;;
81150;SDS011;70629;-26.026;27.976;2024-02-04T02:14:30;16.88;;;15.13;;
81150;SDS011;70629;-26.026;27.976;2024-02-04T02:15:15;14.90;;;13.05;;
81150;SDS011;70629;-26.026;27.976;2024-02-04T02:16:44;14.93;;;12.68;;
81150;SDS011;70629;-26.026;27.976;2024-02-04T02:17:29;15.35;;;13.43;;
81150;SDS011;70629;-26.026;27.976;2024-02-04T02:22:16;12.13;;;10.82;;
81150;SDS011;70629;-26.026;27.976;2024-02-04T02:23:21;14.32;;;11.23;;
81150;SDS011;70629;-26.026;27.976;2024-02-04T02:25:03;13.52;;;12.10;;
81150;SDS011;70629;-26.026;27.976;2024-02-04T02:25:44;13.88;;;12.48;;
81150;SDS011;70629;-26.026;27.976;2024-02-04T02:26:25;13.10;;;10.85;;
81150;SDS011;70629;-26.026;27.976;2024-02-04T02:27:06;14.23;;;10.68;;
81150;SDS011;70629;-26.026;27.976;2024-02-04T02:27:46;14.02;;;11.05;;
81150;SDS011;70629;-26.026;27.976;2024-02-04T02:28:29;12.50;;;10.63;;
81150;SDS011;70629;-26.026;27.976;2024-02-04T02:29:09;13.57;;;11.80;;
81150;SDS011;70629;-26.026;27.976;2024-02-04T02:29:49;12.93;;;10.98;;
81150;SDS011;70629;-26.026;27.976;2024-02-04T02:30:29;14.77;;;12.30;;
81150;SDS011;70629;-26.026;27.976;2024-02-04T02:31:09;15.40;;;12.45;;
81150;SDS011;70629;-26.026;27.976;2024-02-04T02:31:49;15.65;;;12.48;;
81150;SDS011;70629;-26.026;27.976;2024-02-04T02:32:30;12.50;;;11.20;;
81150;SDS011;70629;-26.026;27.976;2024-02-04T02:33:10;13.20;;;11.80;;
81150;SDS011;70629;-26.026;27.976;2024-02-04T02:33:50;14.02;;;12.35;;
81150;SDS011;70629;-26.026;27.976;2024-02-04T02:34:30;14.77;;;10.93;;
81150;SDS011;70629;-26.026;27.976;2024-02-04T02:35:16;12.98;;;11.32;;
81150;SDS011;70629;-26.026;27.976;2024-02-04T02:35:58;14.45;;;11.63;;
81150;SDS011;70629;-26.026;27.976;2024-02-04T02:39:09;12.88;;;11.23;;
81150;SDS011;70629;-26.026;27.976;2024-02-04T02:40:06;13.57;;;11.68;;
81150;SDS011;70629;-26.026;27.976;2024-02-04T02:41:03;13.13;;;11.57;;
81150;SDS011;70629;-26.026;27.976;2024-02-04T02:41:46;14.57;;;12.68;;
81150;SDS011;70629;-26.026;27.976;2024-02-04T02:42:31;13.80;;;10.90;;
81150;SDS011;70629;-26.026;27.976;2024-02-04T02:43:13;12.77;;;11.40;;
81150;SDS011;70629;-26.026;27.976;2024-02-04T02:43:54;15.30;;;11.63;;
81150;SDS011;70629;-26.026;27.976;2024-02-04T02:44:36;13.38;;;11.90;;
81150;SDS011;70629;-26.026;27.976;2024-02-04T02:45:17;13.38;;;12.07;;
81150;SDS011;70629;-26.026;27.976;2024-02-04T02:46:01;14.23;;;12.63;;
81150;SDS011;70629;-26.026;27.976;2024-02-04T02:46:43;14.57;;;12.43;;
81150;SDS011;70629;-26.026;27.976;2024-02-04T02:47:24;14.95;;;13.45;;
81150;SDS011;70629;-26.026;27.976;2024-02-04T02:48:07;16.55;;;13.35;;
81150;SDS011;70629;-26.026;27.976;2024-02-04T02:48:48;18.40;;;13.68;;
81150;SDS011;70629;-26.026;27.976;2024-02-04T02:49:29;15.65;;;13.48;;
81150;SDS011;70629;-26.026;27.976;2024-02-04T02:50:09;17.08;;;15.35;;
81150;SDS011;70629;-26.026;27.976;2024-02-04T02:50:49;20.02;;;16.27;;
81150;SDS011;70629;-26.026;27.976;2024-02-04T02:51:29;20.80;;;16.23;;
81150;SDS011;70629;-26.026;27.976;2024-02-04T02:52:09;19.48;;;16.80;;
81150;SDS011;70629;-26.026;27.976;2024-02-04T02:52:49;21.02;;;16.58;;
81150;SDS011;70629;-26.026;27.976;2024-02-04T02:53:29;20.02;;;17.83;;
81150;SDS011;70629;-26.026;27.976;2024-02-04T02:54:09;24.42;;;21.38;;
81150;SDS011;70629;-26.026;27.976;2024-02-04T02:54:50;22.73;;;17.65;;
81150;SDS011;70629;-26.026;27.976;2024-02-04T02:55:30;23.52;;;18.40;;
81150;SDS011;70629;-26.026;27.976;2024-02-04T02:56:10;22.25;;;18.48;;
81150;SDS011;70629;-26.026;27.976;2024-02-04T02:56:50;24.30;;;19.75;;
81150;SDS011;70629;-26.026;27.976;2024-02-04T02:57:30;21.95;;;18.20;;
81150;SDS011;70629;-26.026;27.976;2024-02-04T02:58:10;24.63;;;19.60;;
81150;SDS011;70629;-26.026;27.976;2024-02-04T02:58:50;22.45;;;20.05;;
81150;SDS011;70629;-26.026;27.976;2024-02-04T02:59:30;24.73;;;20.10;;
81150;SDS011;70629;-26.026;27.976;2024-02-04T03:00:10;22.13;;;18.58;;
81150;SDS011;70629;-26.026;27.976;2024-02-04T03:00:51;25.65;;;20.00;;
81150;SDS011;70629;-26.026;27.976;2024-02-04T03:01:31;30.80;;;21.67;;
81150;SDS011;70629;-26.026;27.976;2024-02-04T03:02:11;34.92;;;25.70;;
81150;SDS011;70629;-26.026;27.976;2024-02-04T03:02:52;35.17;;;25.58;;
81150;SDS011;70629;-26.026;27.976;2024-02-04T03:03:32;43.92;;;30.80;;
81150;SDS011;70629;-26.026;27.976;2024-02-04T03:04:12;40.95;;;29.48;;
81150;SDS011;70629;-26.026;27.976;2024-02-04T03:04:52;42.15;;;29.35;;
81150;SDS011;70629;-26.026;27.976;2024-02-04T03:05:32;48.05;;;32.60;;
81150;SDS011;70629;-26.026;27.976;2024-02-04T03:06:12;48.45;;;33.70;;
81150;SDS011;70629;-26.026;27.976;2024-02-04T03:06:52;54.17;;;36.33;;
81150;SDS011;70629;-26.026;27.976;2024-02-04T03:07:33;50.15;;;32.92;;
81150;SDS011;70629;-26.026;27.976;2024-02-04T03:08:13;42.55;;;30.27;;
81150;SDS011;70629;-26.026;27.976;2024-02-04T03:08:53;44.92;;;29.95;;
81150;SDS011;70629;-26.026;27.976;2024-02-04T03:09:33;37.47;;;28.17;;
81150;SDS011;70629;-26.026;27.976;2024-02-04T03:10:14;35.38;;;27.42;;
81150;SDS011;70629;-26.026;27.976;2024-02-04T03:10:54;36.95;;;28.35;;
81150;SDS011;70629;-26.026;27.976;2024-02-04T03:11:34;43.15;;;28.65;;
81150;SDS011;70629;-26.026;27.976;2024-02-04T03:12:16;43.15;;;31.23;;
81150;SDS011;70629;-26.026;27.976;2024-02-04T03:12:56;40.65;;;30.08;;
81150;SDS011;70629;-26.026;27.976;2024-02-04T03:13:39;41.20;;;29.63;;
81150;SDS011;70629;-26.026;27.976;2024-02-04T03:14:19;37.95;;;26.80;;
81150;SDS011;70629;-26.026;27.976;2024-02-04T03:14:59;35.80;;;25.85;;
81150;SDS011;70629;-26.026;27.976;2024-02-04T03:15:39;33.17;;;24.25;;
81150;SDS011;70629;-26.026;27.976;2024-02-04T03:16:21;27.85;;;23.95;;
81150;SDS011;70629;-26.026;27.976;2024-02-04T03:17:01;32.70;;;25.05;;
81150;SDS011;70629;-26.026;27.976;2024-02-04T03:17:42;32.53;;;24.00;;
81150;SDS011;70629;-26.026;27.976;2024-02-04T03:18:23;32.85;;;24.52;;
81150;SDS011;70629;-26.026;27.976;2024-02-04T03:19:04;35.70;;;25.98;;
81150;SDS011;70629;-26.026;27.976;2024-02-04T03:19:45;36.83;;;26.33;;
81150;SDS011;70629;-26.026;27.976;2024-02-04T03:20:26;41.17;;;27.63;;
81150;SDS011;70629;-26.026;27.976;2024-02-04T03:21:13;40.70;;;27.08;;
81150;SDS011;70629;-26.026;27.976;2024-02-04T03:21:53;37.78;;;27.25;;
81150;SDS011;70629;-26.026;27.976;2024-02-04T03:22:33;38.00;;;26.92;;
81150;SDS011;70629;-26.026;27.976;2024-02-04T03:23:13;45.28;;;32.15;;
81150;SDS011;70629;-26.026;27.976;2024-02-04T03:23:53;41.38;;;29.25;;
81150;SDS011;70629;-26.026;27.976;2024-02-04T03:24:33;40.28;;;27.15;;
81150;SDS011;70629;-26.026;27.976;2024-02-04T03:25:13;39.47;;;27.95;;
81150;SDS011;70629;-26.026;27.976;2024-02-04T03:25:52;44.20;;;32.08;;
81150;SDS011;70629;-26.026;27.976;2024-02-04T03:26:34;47.53;;;31.42;;
81150;SDS011;70629;-26.026;27.976;2024-02-04T03:27:16;47.03;;;34.30;;
81150;SDS011;70629;-26.026;27.976;2024-02-04T03:27:58;51.30;;;33.80;;
81150;SDS011;70629;-26.026;27.976;2024-02-04T03:28:38;50.35;;;33.67;;
81150;SDS011;70629;-26.026;27.976;2024-02-04T03:29:18;50.80;;;37.33;;
81150;SDS011;70629;-26.026;27.976;2024-02-04T03:29:58;48.95;;;31.92;;
81150;SDS011;70629;-26.026;27.976;2024-02-04T03:30:38;48.13;;;32.90;;
81150;SDS011;70629;-26.026;27.976;2024-02-04T03:31:21;45.88;;;31.83;;
81150;SDS011;70629;-26.026;27.976;2024-02-04T03:32:03;42.28;;;29.40;;
81150;SDS011;70629;-26.026;27.976;2024-02-04T03:32:44;34.05;;;26.52;;
81150;SDS011;70629;-26.026;27.976;2024-02-04T03:33:24;34.30;;;25.92;;
81150;SDS011;70629;-26.026;27.976;2024-02-04T03:34:04;29.75;;;20.92;;
81150;SDS011;70629;-26.026;27.976;2024-02-04T03:34:45;29.55;;;20.33;;
81150;SDS011;70629;-26.026;27.976;2024-02-04T03:35:25;29.27;;;19.23;;
81150;SDS011;70629;-26.026;27.976;2024-02-04T03:36:05;25.45;;;19.85;;
81150;SDS011;70629;-26.026;27.976;2024-02-04T03:36:45;22.25;;;16.90;;
81150;SDS011;70629;-26.026;27.976;2024-02-04T03:37:25;23.40;;;17.13;;
81150;SDS011;70629;-26.026;27.976;2024-02-04T03:38:05;23.75;;;19.55;;
81150;SDS011;70629;-26.026;27.976;2024-02-04T03:38:45;24.73;;;19.02;;
81150;SDS011;70629;-26.026;27.976;2024-02-04T03:39:25;24.55;;;20.63;;
81150;SDS011;70629;-26.026;27.976;2024-02-04T03:40:05;24.27;;;19.20;;
81150;SDS011;70629;-26.026;27.976;2024-02-04T03:40:46;25.27;;;19.02;;
81150;SDS011;70629;-26.026;27.976;2024-02-04T03:41:28;26.65;;;19.52;;
81150;SDS011;70629;-26.026;27.976;2024-02-04T03:42:08;28.13;;;21.42;;
81150;SDS011;70629;-26.026;27.976;2024-02-04T03:42:48;29.00;;;20.92;;
81150;SDS011;70629;-26.026;27.976;2024-02-04T03:43:28;32.13;;;22.02;;
81150;SDS011;70629;-26.026;27.976;2024-02-04T03:44:08;32.92;;;23.00;;
81150;SDS011;70629;-26.026;27.976;2024-02-04T03:44:48;30.65;;;21.90;;
81150;SDS011;70629;-26.026;27.976;2024-02-04T03:45:28;34.42;;;22.85;;
81150;SDS011;70629;-26.026;27.976;2024-02-04T03:46:08;32.42;;;23.30;;
81150;SDS011;70629;-26.026;27.976;2024-02-04T03:46:51;28.52;;;21.92;;
81150;SDS011;70629;-26.026;27.976;2024-02-04T03:47:31;28.65;;;22.05;;
81150;SDS011;70629;-26.026;27.976;2024-02-04T03:48:11;30.70;;;23.70;;
81150;SDS011;70629;-26.026;27.976;2024-02-04T03:48:51;29.50;;;22.20;;
81150;SDS011;70629;-26.026;27.976;2024-02-04T03:49:31;28.98;;;21.83;;
81150;SDS011;70629;-26.026;27.976;2024-02-04T03:50:11;27.45;;;20.30;;
81150;SDS011;70629;-26.026;27.976;2024-02-04T03:50:51;27.13;;;20.10;;
81150;SDS011;70629;-26.026;27.976;2024-02-04T03:51:31;25.00;;;20.88;;
81150;SDS011;70629;-26.026;27.976;2024-02-04T03:52:11;24.38;;;19.25;;
81150;SDS011;70629;-26.026;27.976;2024-02-04T03:52:52;23.38;;;19.42;;
81150;SDS011;70629;-26.026;27.976;2024-02-04T03:53:34;25.90;;;19.33;;
81150;SDS011;70629;-26.026;27.976;2024-02-04T03:54:14;24.67;;;18.48;;
81150;SDS011;70629;-26.026;27.976;2024-02-04T03:54:54;25.63;;;18.73;;
81150;SDS011;70629;-26.026;27.976;2024-02-04T03:55:34;25.70;;;18.33;;
81150;SDS011;70629;-26.026;27.976;2024-02-04T03:56:14;23.08;;;17.08;;
81150;SDS011;70629;-26.026;27.976;2024-02-04T03:56:54;20.80;;;17.25;;
81150;SDS011;70629;-26.026;27.976;2024-02-04T03:57:34;23.67;;;18.33;;
81150;SDS011;70629;-26.026;27.976;2024-02-04T03:58:14;22.63;;;17.95;;
81150;SDS011;70629;-26.026;27.976;2024-02-04T03:58:54;22.35;;;18.42;;
81150;SDS011;70629;-26.026;27.976;2024-02-04T03:59:34;21.40;;;16.80;;
81150;SDS011;70629;-26.026;27.976;2024-02-04T04:00:13;22.35;;;17.13;;